Time;durP1;ratioP1;P1;durP2;ratioP2;P2;SDS_P1;SDS_P2;PMS_P1;PMS_P2;Temp;Humidity;BMP_temperature;BMP_pressure;BME280_temperature;BME280_humidity;BME280_pressure;Samples;Min_cycle;Max_cycle;Signal;HPM_P1;HPM_P2
2023/01/20 00:02:19;;;;;;;7.43;4.72;;;;;;;3.69;99.51;97587.03;5097900;28;20036;-92
2023/01/20 00:04:47;;;;;;;7.80;4.47;;;;;;;3.55;100.00;97562.75;5097801;28;20409;-94
2023/01/20 00:07:12;;;;;;;6.78;4.07;;;;;;;3.55;99.74;97565.38;5097863;28;20463;-93
2023/01/20 00:09:38;;;;;;;6.85;3.80;;;;;;;3.75;99.83;97601.78;5097571;28;20052;-94
2023/01/20 00:12:07;;;;;;;8.48;5.45;;;;;;;3.60;99.70;97579.28;5099855;27;20024;-94
2023/01/20 00:14:35;;;;;;;8.48;5.10;;;;;;;3.61;99.47;97584.53;5121825;27;20487;-93
2023/01/20 00:17:02;;;;;;;6.63;4.20;;;;;;;3.58;100.00;97571.44;5120817;27;20046;-94
2023/01/20 00:19:28;;;;;;;6.38;3.70;;;;;;;3.67;99.97;97586.19;5120017;27;20049;-95
2023/01/20 00:21:54;;;;;;;5.65;3.60;;;;;;;3.59;100.00;97574.94;5121368;27;20043;-94
2023/01/20 00:24:20;;;;;;;9.15;3.97;;;;;;;3.63;100.00;97589.75;5121129;27;20080;-93
2023/01/20 00:26:46;;;;;;;6.13;3.70;;;;;;;3.64;99.86;97594.09;5121210;27;20069;-93
2023/01/20 00:29:12;;;;;;;7.15;3.60;;;;;;;3.60;99.31;97579.28;5121107;27;20377;-94
2023/01/20 00:31:38;;;;;;;7.60;3.60;;;;;;;3.74;99.47;97616.72;5121127;27;20047;-93
2023/01/20 00:34:05;;;;;;;5.30;3.17;;;;;;;3.69;99.67;97608.06;5121404;27;20039;-93
2023/01/20 00:36:31;;;;;;;5.60;3.17;;;;;;;3.76;99.76;97620.19;5120857;27;20070;-92
2023/01/20 00:38:57;;;;;;;7.28;4.00;;;;;;;3.56;100.00;97598.66;5120813;27;20039;-94
2023/01/20 00:41:23;;;;;;;6.40;3.67;;;;;;;3.66;100.00;97634.38;5120360;27;20043;-93
2023/01/20 00:43:49;;;;;;;6.80;3.80;;;;;;;3.54;100.00;97618.84;5120468;27;20373;-92
2023/01/20 00:46:15;;;;;;;5.32;3.47;;;;;;;3.47;100.00;97613.69;5120585;27;20053;-94
2023/01/20 00:48:42;;;;;;;5.25;3.25;;;;;;;3.48;100.00;97618.03;5120318;27;20088;-93
2023/01/20 00:51:09;;;;;;;5.95;3.58;;;;;;;3.49;100.00;97618.91;5120001;27;20039;-92
2023/01/20 00:53:36;;;;;;;5.50;3.55;;;;;;;3.52;100.00;97632.00;5117848;27;20528;-92
2023/01/20 00:56:02;;;;;;;5.93;3.20;;;;;;;3.58;100.00;97637.16;5120296;27;20035;-93
2023/01/20 00:58:28;;;;;;;4.68;3.05;;;;;;;3.53;100.00;97641.59;5120809;27;20409;-92
2023/01/20 01:00:54;;;;;;;8.20;3.47;;;;;;;3.61;100.00;97655.50;5120185;27;20073;-92
2023/01/20 01:03:21;;;;;;;7.05;3.78;;;;;;;3.50;100.00;97642.53;5127320;27;20034;-93
2023/01/20 01:05:47;;;;;;;7.63;3.83;;;;;;;3.46;100.00;97637.34;5113677;27;20054;-93
2023/01/20 01:08:14;;;;;;;7.07;3.47;;;;;;;3.46;100.00;97630.34;5119829;27;20138;-93
2023/01/20 01:10:40;;;;;;;7.78;3.10;;;;;;;3.62;100.00;97656.34;5120202;27;20039;-93
2023/01/20 01:13:07;;;;;;;5.63;3.22;;;;;;;3.54;100.00;97646.00;5120360;27;20099;-95
2023/01/20 01:15:32;;;;;;;6.35;3.70;;;;;;;3.50;100.00;97642.53;5120077;27;20042;-92
2023/01/20 01:17:59;;;;;;;6.65;3.40;;;;;;;3.61;100.00;97657.25;5120539;27;20043;-92
2023/01/20 01:20:27;;;;;;;6.60;4.00;;;;;;;3.54;100.00;97646.00;5119798;27;20404;-93
2023/01/20 01:22:54;;;;;;;8.15;3.28;;;;;;;3.61;100.00;97652.00;5120094;27;20023;-93
2023/01/20 01:25:21;;;;;;;4.85;3.08;;;;;;;3.43;100.00;97634.78;5119741;27;20039;-93
2023/01/20 01:27:47;;;;;;;6.35;3.25;;;;;;;3.45;100.00;97651.41;5118891;27;20047;-94
2023/01/20 01:30:13;;;;;;;5.45;3.20;;;;;;;3.42;100.00;97652.31;5118947;27;20054;-92
2023/01/20 01:32:39;;;;;;;5.25;3.30;;;;;;;3.42;100.00;97647.03;5119585;27;20548;-93
2023/01/20 01:35:05;;;;;;;6.28;3.53;;;;;;;3.44;100.00;97650.50;5119698;27;20491;-92
2023/01/20 01:37:31;;;;;;;5.75;3.10;;;;;;;3.52;100.00;97663.53;5119724;27;20043;-94
2023/01/20 01:39:57;;;;;;;6.40;2.92;;;;;;;3.50;100.00;97654.81;5119539;27;20046;-94
2023/01/20 01:42:25;;;;;;;6.53;3.25;;;;;;;3.45;100.00;97652.25;5119856;27;20047;-94
2023/01/20 01:45:25;;;;;;;8.55;4.05;;;;;;;3.50;100.00;97655.69;5119431;27;20035;-93
2023/01/20 01:47:59;;;;;;;6.80;3.45;;;;;;;3.52;100.00;97649.53;5025396;28;20120;-93
2023/01/20 01:50:31;;;;;;;5.47;3.63;;;;;;;3.61;100.00;97662.53;5038403;28;20045;-93
2023/01/20 01:52:58;;;;;;;4.63;2.88;;;;;;;3.52;100.00;97646.91;5037671;28;20480;-94
2023/01/20 01:55:28;;;;;;;4.13;2.70;;;;;;;3.59;100.00;97653.78;5038191;28;20045;-92
2023/01/20 01:57:58;;;;;;;3.78;2.95;;;;;;;3.68;100.00;97664.13;5038898;28;20061;-94
2023/01/20 02:00:24;;;;;;;4.72;2.70;;;;;;;3.69;100.00;97661.50;5038027;28;20044;-94
2023/01/20 02:02:50;;;;;;;4.25;2.60;;;;;;;3.67;100.00;97667.69;5037934;28;20052;-94
2023/01/20 02:05:17;;;;;;;3.55;2.47;;;;;;;3.64;100.00;97672.97;5037848;28;20529;-93
2023/01/20 02:07:46;;;;;;;4.30;2.67;;;;;;;3.62;100.00;97680.91;5037692;28;20045;-92
2023/01/20 02:10:13;;;;;;;4.53;2.90;;;;;;;3.64;100.00;97679.13;5037627;28;20045;-93
2023/01/20 02:12:42;;;;;;;6.30;2.75;;;;;;;3.44;100.00;97653.16;5037156;28;20045;-94
2023/01/20 02:15:29;;;;;;;4.72;2.40;;;;;;;3.45;100.00;97640.91;4997367;28;20116;-93
2023/01/20 02:18:14;;;;;;;3.88;2.50;;;;;;;3.62;100.00;97653.72;5037482;28;20045;-92
2023/01/20 02:21:04;;;;;;;5.20;2.55;;;;;;;3.63;100.00;97651.06;5034766;28;20045;-93
2023/01/20 02:23:45;;;;;;;4.70;3.00;;;;;;;3.52;100.00;97624.13;5098731;28;20039;-94
2023/01/20 02:26:47;;;;;;;3.47;2.40;;;;;;;3.52;100.00;97616.22;5099192;28;20066;-94
2023/01/20 02:29:39;;;;;;;3.88;2.58;;;;;;;3.53;100.00;97609.22;5098452;28;20134;-92
2023/01/20 02:32:13;;;;;;;5.07;2.90;;;;;;;3.53;100.00;97604.81;5057494;28;20051;-93
2023/01/20 02:34:45;;;;;;;4.30;2.80;;;;;;;3.48;100.00;97604.91;5057858;28;20037;-92
2023/01/20 02:37:15;;;;;;;6.53;2.80;;;;;;;3.47;100.00;97616.31;5058110;28;20045;-93
2023/01/20 02:39:50;;;;;;;4.13;2.70;;;;;;;3.35;100.00;97595.50;5058040;28;20064;-93
2023/01/20 02:42:21;;;;;;;4.13;2.65;;;;;;;3.32;100.00;97602.56;5058153;28;20106;-93
2023/01/20 02:44:53;;;;;;;4.30;2.80;;;;;;;3.19;100.00;97578.25;5067758;28;20052;-93
2023/01/20 02:47:25;;;;;;;4.75;2.75;;;;;;;3.36;100.00;97593.72;5077295;28;20076;-93
2023/01/20 02:49:57;;;;;;;6.53;2.65;;;;;;;3.20;100.00;97587.88;5077595;28;20113;-93
2023/01/20 02:52:28;;;;;;;3.97;2.63;;;;;;;3.08;100.00;97588.97;5077165;28;20117;-95
2023/01/20 02:54:58;;;;;;;6.57;2.47;;;;;;;2.99;100.00;97587.34;5077280;28;20089;-93
2023/01/20 02:57:35;;;;;;;4.40;2.58;;;;;;;2.98;100.00;97609.22;5077544;28;20500;-94
2023/01/20 03:00:07;;;;;;;5.82;2.60;;;;;;;2.83;100.00;97596.34;5077380;28;20131;-93
2023/01/20 03:02:37;;;;;;;4.55;2.33;;;;;;;2.65;100.00;97579.13;5077636;28;20547;-93
2023/01/20 03:05:09;;;;;;;5.68;2.50;;;;;;;2.64;100.00;97596.59;5077413;28;20020;-93
2023/01/20 03:07:38;;;;;;;4.40;2.70;;;;;;;2.61;100.00;97586.16;5077189;28;20067;-93
2023/01/20 03:10:08;;;;;;;3.63;2.40;;;;;;;2.70;100.00;97606.16;5095270;28;20047;-93
2023/01/20 03:12:39;;;;;;;4.25;2.55;;;;;;;2.78;100.00;97604.28;5106748;28;20127;-93
2023/01/20 03:15:07;;;;;;;3.72;2.40;;;;;;;2.84;100.00;97603.31;5117147;27;20468;-94
2023/01/20 03:17:34;;;;;;;3.80;2.40;;;;;;;2.93;100.00;97608.44;5125983;27;20036;-95
2023/01/20 03:20:01;;;;;;;5.00;2.90;;;;;;;2.95;100.00;97611.91;5132846;27;20040;-93
2023/01/20 03:22:29;;;;;;;5.38;3.00;;;;;;;2.97;100.00;97618.00;5122246;27;20083;-93
2023/01/20 03:24:56;;;;;;;4.50;2.92;;;;;;;2.82;100.00;97582.34;5122174;27;20071;-94
2023/01/20 03:27:23;;;;;;;4.78;3.35;;;;;;;2.97;100.00;97604.00;5122066;27;20039;-93
2023/01/20 03:29:49;;;;;;;6.00;2.88;;;;;;;2.96;100.00;97583.88;5121690;27;20047;-93
2023/01/20 03:32:14;;;;;;;4.30;2.80;;;;;;;3.13;100.00;97613.38;5121853;27;20563;-94
2023/01/20 03:34:43;;;;;;;4.20;2.55;;;;;;;3.09;100.00;97588.91;5118244;28;20046;-94
2023/01/20 03:37:10;;;;;;;3.40;2.28;;;;;;;3.11;100.00;97588.03;5119243;28;20497;-93
2023/01/20 03:39:38;;;;;;;4.35;2.33;;;;;;;3.16;100.00;97592.31;5119099;28;20047;-93
2023/01/20 03:42:09;;;;;;;6.10;2.63;;;;;;;3.24;100.00;97589.56;5118385;28;20047;-93
2023/01/20 03:44:53;;;;;;;4.47;2.40;;;;;;;3.15;100.00;97569.56;5118495;28;20044;-93
2023/01/20 03:47:35;;;;;;;4.20;2.20;;;;;;;3.22;100.00;97572.97;5118281;28;20142;-93
2023/01/20 03:50:08;;;;;;;4.55;2.92;;;;;;;3.17;100.00;97564.28;5118474;28;20048;-93
2023/01/20 03:52:38;;;;;;;4.28;2.90;;;;;;;3.23;100.00;97572.94;5118252;28;20051;-93
2023/01/20 03:55:10;;;;;;;5.93;3.03;;;;;;;3.31;100.00;97585.06;5117949;28;20049;-93
2023/01/20 03:57:41;;;;;;;4.72;2.90;;;;;;;3.24;100.00;97579.06;5118082;28;20044;-93
2023/01/20 04:00:09;;;;;;;5.10;3.17;;;;;;;3.26;100.00;97566.75;5118462;28;20097;-93
2023/01/20 04:02:37;;;;;;;6.10;3.07;;;;;;;3.42;100.00;97576.09;5118871;28;20138;-93
2023/01/20 04:05:07;;;;;;;4.80;2.90;;;;;;;3.44;100.00;97576.94;5117726;28;20494;-93
2023/01/20 04:07:33;;;;;;;3.75;2.85;;;;;;;3.37;100.00;97549.03;5116427;28;20047;-93
2023/01/20 04:10:05;;;;;;;4.18;2.70;;;;;;;3.25;100.00;97546.63;5118188;28;20503;-93
2023/01/20 04:12:31;;;;;;;5.15;3.00;;;;;;;3.29;100.00;97570.19;5117668;28;20050;-94
2023/01/20 04:14:57;;;;;;;5.15;3.08;;;;;;;3.19;100.00;97562.47;5118405;28;20044;-94
2023/01/20 04:17:26;;;;;;;5.28;2.97;;;;;;;3.31;100.00;97570.16;5117906;28;20449;-93
2023/01/20 04:19:53;;;;;;;4.88;2.88;;;;;;;3.30;100.00;97565.81;5118352;28;20044;-93
2023/01/20 04:22:28;;;;;;;4.00;3.00;;;;;;;3.29;100.00;97564.94;5117890;28;20039;-94
2023/01/20 04:25:00;;;;;;;4.40;3.00;;;;;;;3.35;100.00;97565.72;5118034;28;20050;-93
2023/01/20 04:27:26;;;;;;;4.18;2.83;;;;;;;3.39;100.00;97573.53;5117426;28;20066;-93
2023/01/20 04:29:51;;;;;;;4.75;3.22;;;;;;;3.34;100.00;97558.72;5117724;28;20040;-93
2023/01/20 04:32:17;;;;;;;4.68;2.97;;;;;;;3.30;100.00;97557.94;5117404;28;20046;-92
2023/01/20 04:34:43;;;;;;;5.28;2.83;;;;;;;3.28;100.00;97550.06;5117513;28;20489;-92
2023/01/20 04:37:09;;;;;;;5.03;2.88;;;;;;;3.38;100.00;97571.78;5117426;28;20039;-93
2023/01/20 04:39:36;;;;;;;5.10;2.92;;;;;;;3.20;100.00;97543.22;5117392;28;20047;-94
2023/01/20 04:42:02;;;;;;;4.75;3.00;;;;;;;3.26;100.00;97551.00;5120851;27;20031;-94
2023/01/20 04:44:28;;;;;;;8.10;3.58;;;;;;;3.24;100.00;97563.28;5120894;27;20089;-93
2023/01/20 04:46:55;;;;;;;5.13;3.15;;;;;;;3.21;100.00;97571.22;5119055;27;20524;-93
2023/01/20 04:49:21;;;;;;;5.30;2.97;;;;;;;3.19;100.00;97576.50;5120525;27;20391;-92
2023/01/20 04:51:47;;;;;;;5.00;3.10;;;;;;;3.07;100.00;97561.81;5120555;27;20045;-93
2023/01/20 04:54:13;;;;;;;4.75;3.22;;;;;;;3.15;100.00;97559.06;5120645;27;20043;-93
2023/01/20 04:56:40;;;;;;;5.15;3.20;;;;;;;3.15;100.00;97561.69;5120696;27;20381;-95
2023/01/20 04:59:06;;;;;;;6.20;3.10;;;;;;;3.06;100.00;97567.97;5120915;27;20039;-94
2023/01/20 05:01:32;;;;;;;4.43;2.80;;;;;;;2.96;100.00;97552.38;5120205;27;20452;-94
2023/01/20 05:03:58;;;;;;;4.60;2.90;;;;;;;2.85;100.00;97542.06;5120210;27;20043;-95
2023/01/20 05:06:24;;;;;;;4.88;3.10;;;;;;;2.84;100.00;97541.19;5120547;27;20557;-93
2023/01/20 05:08:50;;;;;;;5.13;2.80;;;;;;;2.91;100.00;97564.69;5120057;27;20422;-94
2023/01/20 05:11:16;;;;;;;3.97;2.85;;;;;;;2.74;100.00;97546.59;5120727;27;20054;-93
2023/01/20 05:13:43;;;;;;;5.55;3.35;;;;;;;2.79;100.00;97571.03;5107583;28;20405;-93
2023/01/20 05:16:09;;;;;;;4.63;2.80;;;;;;;2.57;100.00;97552.97;5096336;28;20043;-94
2023/01/20 05:18:35;;;;;;;5.03;2.70;;;;;;;2.57;100.00;97568.72;5096842;28;20059;-93
2023/01/20 05:21:03;;;;;;;4.50;2.60;;;;;;;2.36;100.00;97561.16;5095051;28;20048;-94
2023/01/20 05:23:29;;;;;;;4.47;2.70;;;;;;;2.31;100.00;97576.09;5098330;28;20047;-93
2023/01/20 05:25:55;;;;;;;4.45;2.95;;;;;;;2.04;100.00;97562.47;5098873;28;20055;-94
2023/01/20 05:28:21;;;;;;;4.88;2.80;;;;;;;1.78;100.00;97547.03;5099606;28;20119;-94
2023/01/20 05:30:49;;;;;;;4.93;3.10;;;;;;;1.88;100.00;97584.50;5098965;28;20044;-93
2023/01/20 05:33:15;;;;;;;4.88;3.17;;;;;;;1.68;100.00;97566.38;5098920;28;20044;-93
2023/01/20 05:35:41;;;;;;;6.50;3.25;;;;;;;1.53;100.00;97562.16;5097664;28;20036;-92
2023/01/20 05:38:07;;;;;;;5.78;3.25;;;;;;;1.41;100.00;97557.91;5096811;28;20051;-93
2023/01/20 05:40:33;;;;;;;4.70;2.88;;;;;;;1.47;100.00;97573.56;5098530;28;20408;-92
2023/01/20 05:42:59;;;;;;;4.15;3.05;;;;;;;1.39;100.00;97570.16;5097114;28;20093;-93
2023/01/20 05:45:25;;;;;;;5.00;2.90;;;;;;;1.19;100.00;97550.28;5098143;28;20048;-94
2023/01/20 05:47:55;;;;;;;5.43;3.40;;;;;;;1.29;100.00;97581.59;5097634;28;20409;-95
2023/01/20 05:50:21;;;;;;;6.15;3.50;;;;;;;0.93;100.00;97547.91;5098327;28;20098;-93
2023/01/20 05:52:47;;;;;;;4.85;3.20;;;;;;;0.96;100.00;97545.25;5097988;28;20044;-94
2023/01/20 05:55:13;;;;;;;5.75;3.65;;;;;;;1.10;100.00;97547.72;5096693;28;20044;-93
2023/01/20 05:57:38;;;;;;;6.05;3.72;;;;;;;1.09;100.00;97529.44;5095071;28;20477;-93
2023/01/20 06:00:06;;;;;;;9.15;4.03;;;;;;;1.33;100.00;97570.22;5096441;28;20048;-93
2023/01/20 06:02:32;;;;;;;6.57;3.90;;;;;;;1.35;100.00;97552.75;5097248;28;20139;-94
2023/01/20 06:05:00;;;;;;;7.43;4.38;;;;;;;1.43;100.00;97553.50;5095842;28;20134;-94
2023/01/20 06:07:26;;;;;;;8.98;4.82;;;;;;;1.55;100.00;97563.00;5095698;28;20040;-93
2023/01/20 06:09:52;;;;;;;9.15;4.50;;;;;;;1.49;100.00;97557.84;5096651;28;20459;-93
2023/01/20 06:12:18;;;;;;;6.90;4.18;;;;;;;1.61;100.00;97571.69;5102252;27;20051;-93
2023/01/20 06:14:44;;;;;;;7.15;4.38;;;;;;;1.51;100.00;97554.31;5119797;28;20467;-93
2023/01/20 06:17:10;;;;;;;6.43;4.00;;;;;;;1.50;100.00;97551.72;5120780;27;20043;-94
2023/01/20 06:19:36;;;;;;;5.85;3.63;;;;;;;1.51;100.00;97562.16;5121275;28;20047;-94
2023/01/20 06:22:03;;;;;;;5.47;3.38;;;;;;;1.59;100.00;97585.69;5120793;28;20039;-93
2023/01/20 06:24:29;;;;;;;7.97;4.30;;;;;;;1.51;100.00;97583.13;5121474;28;20151;-95
2023/01/20 06:26:55;;;;;;;9.85;4.18;;;;;;;1.29;100.00;97576.38;5121593;28;20062;-91
2023/01/20 06:29:21;;;;;;;7.13;4.03;;;;;;;1.23;100.00;97565.06;5120127;28;20066;-93
2023/01/20 06:31:47;;;;;;;6.40;3.97;;;;;;;1.19;100.00;97570.34;5119657;28;20043;-94
2023/01/20 06:34:13;;;;;;;5.68;3.45;;;;;;;1.29;100.00;97573.75;5120754;28;20063;-93
2023/01/20 06:36:39;;;;;;;6.75;3.78;;;;;;;1.38;100.00;97576.28;5122473;28;20455;-94
2023/01/20 06:39:07;;;;;;;6.38;3.83;;;;;;;1.52;100.00;97592.75;5123525;28;20496;-93
2023/01/20 06:41:33;;;;;;;6.50;3.70;;;;;;;1.55;100.00;97595.31;5120765;28;20039;-92
2023/01/20 06:43:59;;;;;;;5.43;3.70;;;;;;;1.62;100.00;97590.88;5121157;28;20073;-93
2023/01/20 06:46:24;;;;;;;5.35;3.25;;;;;;;1.73;100.00;97603.88;5121528;28;20039;-94
2023/01/20 06:48:50;;;;;;;5.40;3.40;;;;;;;1.74;100.00;97603.84;5120549;28;20384;-93
2023/01/20 06:51:19;;;;;;;4.85;3.40;;;;;;;1.63;100.00;97579.53;5126115;27;20071;-93
2023/01/20 06:53:45;;;;;;;4.50;3.10;;;;;;;1.62;100.00;97580.41;5123953;27;20051;-93
2023/01/20 06:56:14;;;;;;;5.43;3.38;;;;;;;1.60;100.00;97588.25;5123222;27;20058;-94
2023/01/20 06:58:40;;;;;;;5.43;3.33;;;;;;;1.61;100.00;97590.00;5124447;27;20085;-93
2023/01/20 07:01:09;;;;;;;4.85;3.17;;;;;;;1.69;100.00;97597.78;5123647;27;20035;-93
2023/01/20 07:03:35;;;;;;;6.75;3.63;;;;;;;1.66;100.00;97586.47;5124962;27;20632;-92
2023/01/20 07:06:03;;;;;;;5.78;3.33;;;;;;;1.85;100.00;97612.47;5123947;27;20043;-92
2023/01/20 07:08:30;;;;;;;5.30;2.97;;;;;;;1.85;100.00;97606.38;5121836;27;20043;-92
2023/01/20 07:10:56;;;;;;;5.35;3.10;;;;;;;1.93;100.00;97619.38;5124547;27;20134;-94
2023/01/20 07:13:23;;;;;;;5.47;3.30;;;;;;;1.92;100.00;97605.41;5123779;27;20054;-94
2023/01/20 07:15:49;;;;;;;7.57;3.50;;;;;;;2.04;100.00;97615.75;5124385;27;20405;-93
2023/01/20 07:18:15;;;;;;;5.03;3.50;;;;;;;2.20;100.00;97616.44;5123324;27;20119;-92
2023/01/20 07:20:42;;;;;;;5.97;3.53;;;;;;;2.37;100.00;97600.47;5123875;27;20551;-92
2023/01/20 07:23:08;;;;;;;6.53;3.75;;;;;;;2.45;100.00;97598.63;5123224;27;20039;-92
2023/01/20 07:25:36;;;;;;;5.38;3.75;;;;;;;2.57;100.00;97597.59;5123978;27;20100;-92
2023/01/20 07:28:03;;;;;;;5.68;3.70;;;;;;;2.49;100.00;97583.69;5125359;27;20039;-92
2023/01/20 07:30:30;;;;;;;6.15;4.10;;;;;;;2.65;100.00;97600.09;5124320;27;20054;-92
2023/01/20 07:32:56;;;;;;;10.18;4.13;;;;;;;2.78;100.00;97609.53;5122822;27;20036;-93
2023/01/20 07:35:22;;;;;;;6.30;3.95;;;;;;;2.78;100.00;97612.16;5123246;27;20046;-94
2023/01/20 07:37:48;;;;;;;6.88;4.13;;;;;;;2.71;100.00;97594.78;5122015;27;20055;-93
2023/01/20 07:40:14;;;;;;;6.30;4.28;;;;;;;2.86;100.00;97619.91;5122203;27;20050;-93
2023/01/20 07:42:40;;;;;;;11.27;4.32;;;;;;;2.76;100.00;97605.22;5121306;27;20138;-94
2023/01/20 07:45:07;;;;;;;6.07;3.90;;;;;;;2.81;100.00;97622.59;5122478;27;20051;-92
2023/01/20 07:47:34;;;;;;;8.23;5.03;;;;;;;2.75;100.00;97606.94;5122534;27;20100;-94
2023/01/20 07:50:00;;;;;;;7.80;4.60;;;;;;;3.04;100.00;97627.53;5122133;27;20070;-94
2023/01/20 07:52:26;;;;;;;5.93;3.92;;;;;;;3.20;100.00;97641.28;5122413;27;20096;-92
2023/01/20 07:54:52;;;;;;;7.22;4.20;;;;;;;3.18;100.00;97623.81;5122073;27;20400;-94
2023/01/20 07:57:18;;;;;;;6.47;4.40;;;;;;;3.25;100.00;97639.47;5121494;27;20134;-93
2023/01/20 07:59:44;;;;;;;5.90;4.25;;;;;;;3.18;100.00;97613.31;5121856;27;20510;-93
2023/01/20 08:02:10;;;;;;;6.57;4.07;;;;;;;3.27;100.00;97640.31;5121161;27;20488;-94
2023/01/20 08:04:37;;;;;;;7.55;4.20;;;;;;;3.47;100.00;97653.13;5121997;27;20039;-94
2023/01/20 08:07:03;;;;;;;6.90;4.03;;;;;;;3.52;99.28;97660.91;5122542;27;20556;-93
2023/01/20 08:09:29;;;;;;;6.55;3.80;;;;;;;3.49;99.73;97630.31;5121900;27;20051;-95
2023/01/20 08:11:55;;;;;;;7.43;4.00;;;;;;;3.79;97.65;97635.03;5122144;27;20059;-94
2023/01/20 08:14:20;;;;;;;8.90;5.20;;;;;;;3.84;96.72;97641.94;5120583;27;20051;-93
2023/01/20 08:16:46;;;;;;;6.70;4.43;;;;;;;3.92;96.57;97657.56;5121712;27;20396;-94
2023/01/20 08:19:12;;;;;;;5.63;4.10;;;;;;;3.98;93.80;97657.47;5121429;27;20089;-93
2023/01/20 08:21:39;;;;;;;7.65;4.53;;;;;;;4.14;92.20;97671.19;5121405;27;20110;-93
2023/01/20 08:24:05;;;;;;;6.00;4.43;;;;;;;4.15;92.80;97678.19;5121357;27;20043;-94
2023/01/20 08:26:32;;;;;;;8.60;4.85;;;;;;;4.25;92.74;97685.03;5121370;27;20045;-93
2023/01/20 08:29:01;;;;;;;7.38;4.20;;;;;;;4.13;90.74;97664.19;5121878;27;20044;-93
2023/01/20 08:31:27;;;;;;;8.13;4.88;;;;;;;4.25;90.17;97676.25;5121777;27;20134;-95
2023/01/20 08:33:54;;;;;;;7.80;4.82;;;;;;;4.30;90.42;97675.28;5121203;27;20071;-92
2023/01/20 08:36:24;;;;;;;5.82;4.03;;;;;;;4.74;87.38;97698.97;5120796;27;20047;-93
2023/01/20 08:38:53;;;;;;;5.47;3.83;;;;;;;4.42;88.77;97668.03;5121884;27;20050;-93
2023/01/20 08:41:21;;;;;;;17.23;9.77;;;;;;;4.47;91.79;97671.44;5121180;27;20495;-94
2023/01/20 08:43:47;;;;;;;9.82;6.38;;;;;;;4.60;93.57;97672.94;5123190;27;20271;-93
2023/01/20 08:46:15;;;;;;;7.32;3.63;;;;;;;4.61;86.77;97669.38;5121877;27;20042;-91
2023/01/20 08:48:42;;;;;;;5.95;3.28;;;;;;;4.78;84.60;97682.19;5122002;27;20043;-93
2023/01/20 08:51:10;;;;;;;5.18;3.20;;;;;;;4.89;85.22;97697.78;5119689;27;20141;-92
2023/01/20 08:53:36;;;;;;;4.82;3.10;;;;;;;4.84;84.77;97681.22;5120320;27;20043;-92
2023/01/20 08:56:05;;;;;;;5.05;3.10;;;;;;;4.92;81.88;97688.03;5121614;27;20039;-92
2023/01/20 08:58:31;;;;;;;4.57;2.93;;;;;;;5.04;82.62;97701.84;5121096;27;20492;-93
2023/01/20 09:00:57;;;;;;;5.38;2.80;;;;;;;5.20;78.38;97686.53;5119654;27;20051;-93
2023/01/20 09:03:23;;;;;;;4.13;2.72;;;;;;;5.33;77.89;97688.88;5120814;27;20607;-94
2023/01/20 09:05:49;;;;;;;3.55;2.38;;;;;;;5.41;76.61;97686.03;5120886;27;20130;-94
2023/01/20 09:08:16;;;;;;;3.58;2.47;;;;;;;5.41;74.51;97699.22;5120755;27;20137;-94
2023/01/20 09:10:42;;;;;;;4.97;2.30;;;;;;;5.32;74.36;97689.75;5121704;27;20092;-94
2023/01/20 09:13:10;;;;;;;3.08;2.55;;;;;;;5.23;74.90;97697.03;5120478;28;20061;-95
2023/01/20 09:15:35;;;;;;;3.78;2.35;;;;;;;5.39;75.37;97706.31;5119478;27;20496;-95
2023/01/20 09:18:01;;;;;;;3.33;2.50;;;;;;;5.45;73.10;97698.25;5122558;27;20047;-95
2023/01/20 09:20:29;;;;;;;3.50;2.35;;;;;;;5.43;73.79;97681.59;5120067;27;20043;-94
2023/01/20 09:22:59;;;;;;;3.53;2.30;;;;;;;5.49;71.48;97681.47;5120534;27;20043;-94
2023/01/20 09:25:25;;;;;;;2.60;2.03;;;;;;;5.64;69.91;97711.88;5120190;27;20131;-95
2023/01/20 09:27:51;;;;;;;3.35;2.28;;;;;;;5.44;71.32;97687.72;5121308;27;20133;-94
2023/01/20 09:30:18;;;;;;;3.72;2.30;;;;;;;5.52;71.23;97685.78;5123421;27;20051;-93
2023/01/20 09:32:44;;;;;;;3.70;2.50;;;;;;;5.45;72.70;97679.78;5122287;27;20039;-94
2023/01/20 09:35:10;;;;;;;3.85;2.67;;;;;;;5.54;70.16;97705.06;5121724;27;20563;-93
2023/01/20 09:43:55;;;;;;;4.30;2.75;;;;;;;5.72;71.60;97695.84;5113871;27;20867;-96
2023/01/20 09:46:30;;;;;;;3.20;2.33;;;;;;;5.72;70.80;97690.56;5114102;28;20071;-95
2023/01/20 09:55:31;;;;;;;3.90;2.33;;;;;;;5.79;67.93;97678.97;5052345;27;20385;-94
2023/01/20 09:58:06;;;;;;;3.75;2.38;;;;;;;5.70;65.42;97671.28;5050745;27;20045;-95
2023/01/20 10:00:34;;;;;;;5.00;2.60;;;;;;;5.72;64.86;97672.09;5052448;28;20049;-95
2023/01/20 10:03:08;;;;;;;3.05;2.25;;;;;;;5.88;66.85;97644.44;5049124;28;20113;-94
2023/01/20 10:05:38;;;;;;;3.15;2.33;;;;;;;5.70;66.12;97648.41;5050960;27;20049;-93
2023/01/20 10:08:11;;;;;;;3.45;2.17;;;;;;;5.80;65.34;97658.72;5049959;28;20053;-93
2023/01/20 10:10:45;;;;;;;3.58;2.10;;;;;;;5.75;66.68;97653.56;5050601;28;20052;-93
2023/01/20 10:13:18;;;;;;;2.78;2.10;;;;;;;5.91;65.23;97649.59;5050199;28;20045;-93
2023/01/20 10:15:49;;;;;;;3.75;2.10;;;;;;;6.05;64.42;97637.84;5049718;27;20045;-93
2023/01/20 10:18:19;;;;;;;2.58;1.90;;;;;;;6.23;64.48;97636.50;5060952;27;20046;-95
2023/01/20 10:20:49;;;;;;;2.90;1.70;;;;;;;6.06;61.54;97623.75;5139465;27;20055;-94
2023/01/20 10:23:23;;;;;;;2.88;1.60;;;;;;;6.30;63.14;97661.81;5153296;27;20035;-93
2023/01/20 10:25:59;;;;;;;3.38;1.73;;;;;;;6.26;62.31;97629.34;5088232;27;20045;-93
2023/01/20 10:28:28;;;;;;;3.55;1.90;;;;;;;6.29;63.02;97626.63;5051821;28;20405;-95
2023/01/20 10:30:56;;;;;;;15.70;8.37;;;;;;;6.41;63.69;97637.75;5048514;28;20041;-95
2023/01/20 10:33:29;;;;;;;1.90;1.60;;;;;;;6.27;58.87;97617.03;5050832;28;20034;-94
2023/01/20 10:35:57;;;;;;;10.52;5.80;;;;;;;6.25;59.87;97638.19;5080187;27;20039;-93
2023/01/20 10:38:38;;;;;;;4.30;2.30;;;;;;;5.76;62.17;97615.72;5052278;28;20417;-96
2023/01/20 10:41:14;;;;;;;14.55;6.20;;;;;;;5.92;63.61;97605.63;5048505;28;20049;-94
2023/01/20 10:43:40;;;;;;;45.65;18.10;;;;;;;6.20;61.98;97611.03;5046873;28;20102;-95
2023/01/20 10:46:19;;;;;;;14.18;5.90;;;;;;;6.29;62.27;97605.50;5046506;28;20075;-94
2023/01/20 10:49:24;;;;;;;6.78;4.05;;;;;;;5.84;66.36;97583.88;5050918;28;20486;-95
2023/01/20 10:52:00;;;;;;;7.50;4.38;;;;;;;5.78;67.43;97591.94;4974503;28;20042;-95
2023/01/20 10:54:36;;;;;;;53.03;24.05;;;;;;;5.99;67.42;97601.09;4960071;28;20051;-94
2023/01/20 10:57:09;;;;;;;6.60;4.28;;;;;;;5.88;66.81;97580.25;4953107;28;20055;-94
2023/01/20 10:59:41;;;;;;;5.50;3.22;;;;;;;5.94;67.70;97594.16;4954511;28;20567;-93
2023/01/20 11:02:15;;;;;;;4.80;2.80;;;;;;;6.03;68.38;97579.84;4951348;28;20153;-94
2023/01/20 11:04:41;;;;;;;5.13;3.38;;;;;;;5.96;67.78;97570.34;4950793;28;20047;-95
2023/01/20 11:07:14;;;;;;;4.78;3.08;;;;;;;5.74;68.53;97543.69;4943864;29;20074;-96
2023/01/20 11:09:41;;;;;;;5.15;3.20;;;;;;;5.97;69.36;97567.69;4940812;28;20052;-95
2023/01/20 11:12:14;;;;;;;4.78;3.13;;;;;;;6.09;68.71;97553.25;4939742;28;20404;-94
2023/01/20 11:14:41;;;;;;;4.55;3.10;;;;;;;5.86;68.79;97548.63;4942527;29;20536;-94
2023/01/20 11:17:13;;;;;;;4.43;3.15;;;;;;;5.93;70.15;97566.00;4942196;28;20043;-94
2023/01/20 11:19:51;;;;;;;5.55;3.20;;;;;;;6.03;69.44;97544.66;5007511;28;20046;-95
2023/01/20 11:22:25;;;;;;;5.55;3.33;;;;;;;6.05;70.07;97527.00;4947186;28;20055;-94
2023/01/20 11:24:54;;;;;;;5.45;3.30;;;;;;;6.09;68.33;97524.22;4939856;29;20043;-93
2023/01/20 11:27:25;;;;;;;5.15;3.00;;;;;;;6.11;69.26;97521.56;4985210;28;20045;-93
2023/01/20 11:29:57;;;;;;;5.18;3.25;;;;;;;5.97;68.57;97520.19;5076223;28;20050;-93
2023/01/20 11:32:29;;;;;;;6.25;3.15;;;;;;;6.09;69.89;97507.53;5022764;28;20046;-93
2023/01/20 11:34:56;;;;;;;3.65;2.60;;;;;;;6.04;69.00;97504.19;5025130;28;20053;-93
2023/01/20 11:37:24;;;;;;;4.72;2.70;;;;;;;6.37;68.04;97529.56;5064070;28;20046;-94
2023/01/20 11:39:59;;;;;;;5.82;3.28;;;;;;;5.95;69.86;97506.16;5097775;28;20042;-94
2023/01/20 11:42:28;;;;;;;5.18;3.05;;;;;;;5.94;70.31;97509.75;5036699;27;20518;-94
2023/01/20 11:44:56;;;;;;;;;;;;;;;6.24;69.81;97540.53;5016244;28;20042;-95
2023/01/20 11:47:24;;;;;;;4.55;2.72;;;;;;;6.07;68.55;97504.97;5094797;28;19923;-94
2023/01/20 11:50:20;;;;;;;4.28;2.85;;;;;;;6.21;68.93;97533.59;5044830;28;20042;-95
2023/01/20 11:52:46;;;;;;;4.70;3.05;;;;;;;6.03;69.63;97505.06;5020273;28;20037;-95
2023/01/20 11:55:19;;;;;;;4.53;2.83;;;;;;;6.38;68.07;97515.47;5035497;27;20133;-94
2023/01/20 11:57:51;;;;;;;4.82;2.92;;;;;;;6.29;67.05;97492.00;5035375;28;20050;-95